Wishon, California
Current Conditions -  °F | °C
As of 4:53 AM on Thursday 23 Oct 2014 (Local Time) from KFAT Reporting Station
Few Clouds Few Clouds  
Wind Chill: 57°   Ceiling: Unl
Heat Index: 57°   Visibility: 10mi
Dew Point: 44°   Wind: 5mph
Humidity: 62%   Direction: 80°E
Pressure: 30.01"   Gusts: NA
Location:  37.27°N, 119.54°W
Report Text: KFAT 231153Z 08004KT 10SM FEW250 14/07 A3001 RMK AO2 SLP160 T01390067 10172 20128 56010
Loading
Personal Weather Stations






























Interactive Weather Map New forecast layout! Learn more

10-Day Weather Forecast

Advertisements
Track Severe Weather on mobile